^^
Station Historical Data
 
Daily Summary for February 16, 2019 Units:  English    Metric   Both
« Previous Day
Next Day »
Daily Weekly Monthly Yearly Custom
  Current: High: Low: Average:
Temperature: 15.3 °F 15.8 °F -7.8 °F -2.1 °F
Dew Point: 11.8 °F 12.4 °F -9.8 °F -3.6 °F
Humidity: 86% 98% 86% 93%
Wind Speed: 0.9mph 0.9mph 0.0mph 0mph
Wind Gust: 2.0mph 2.0mph - -
WindNNW - - NNW
Pressure: 30.19 in 30.19 in 30.04 in -
Precipitation: 0.00 in      
Historical Graphs
 
 
Tabular Data for February 16, 2019
Time Temperature Dew Point Pressure Wind Wind Speed Wind Gust Humidity Rainfall Rate (Hourly) solar Conditions
00:04 5.5 °F 5.2 °F 30.04 in Calm   -999.0 mph 98% 0.00 in meteobridge W/m2
00:08 5.4 °F 5.0 °F 30.04 in Calm   -999.0 mph 98% 0.00 in meteobridge W/m2
00:14 5.0 °F 4.6 °F 30.04 in Calm     98% 0.00 in meteobridge W/m2
00:19 4.5 °F 4.1 °F 30.04 in Calm     98% 0.00 in meteobridge W/m2
00:24 4.5 °F 4.1 °F 30.04 in Calm     98% 0.00 in meteobridge W/m2
00:29 3.9 °F 3.0 °F 30.05 in Calm     96% 0.00 in meteobridge W/m2
00:34 3.6 °F 2.7 °F 30.05 in Calm     96% 0.00 in meteobridge W/m2
00:39 3.4 °F 2.5 °F 30.04 in Calm     96% 0.00 in meteobridge W/m2
00:44 3.0 °F 2.1 °F 30.05 in Calm     96% 0.00 in meteobridge W/m2
00:49 2.7 °F 1.8 °F 30.05 in Calm     96% 0.00 in meteobridge W/m2
00:54 2.7 °F 1.8 °F 30.05 in Calm     96% 0.00 in meteobridge W/m2
00:59 2.1 °F 1.2 °F 30.05 in Calm     96% 0.00 in meteobridge W/m2
01:04 1.9 °F 1.0 °F 30.05 in Calm     96% 0.00 in meteobridge W/m2
01:09 1.8 °F 0.9 °F 30.05 in Calm     96% 0.00 in meteobridge W/m2
01:14 1.2 °F -0.4 °F 30.05 in Calm     93% 0.00 in meteobridge W/m2
01:19 1.0 °F -0.6 °F 30.05 in Calm     93% 0.00 in meteobridge W/m2
01:24 0.7 °F -0.9 °F 30.05 in Calm     93% 0.00 in meteobridge W/m2
01:29 0.3 °F -0.8 °F 30.06 in Calm     95% 0.00 in meteobridge W/m2
01:34 -0.2 °F -1.8 °F 30.06 in Calm     93% 0.00 in meteobridge W/m2
01:39 -0.4 °F -2.0 °F 30.06 in Calm     93% 0.00 in meteobridge W/m2
01:44 -0.8 °F -2.4 °F 30.06 in Calm     93% 0.00 in meteobridge W/m2
01:49 -0.8 °F -1.8 °F 30.07 in Calm     95% 0.00 in meteobridge W/m2
01:54 -0.9 °F -1.8 °F 30.07 in Calm     96% 0.00 in meteobridge W/m2
01:59 -0.9 °F -1.8 °F 30.07 in Calm     96% 0.00 in meteobridge W/m2
02:04 -0.9 °F -1.8 °F 30.07 in Calm     96% 0.00 in meteobridge W/m2
02:09 -1.1 °F -2.0 °F 30.07 in Calm     96% 0.00 in meteobridge W/m2
02:14 -1.1 °F -2.2 °F 30.07 in Calm     95% 0.00 in meteobridge W/m2
02:19 -1.5 °F -2.6 °F 30.08 in Calm     95% 0.00 in meteobridge W/m2
02:24 -1.7 °F -3.1 °F 30.07 in Calm     93% 0.00 in meteobridge W/m2
02:29 -2.0 °F -3.5 °F 30.08 in Calm   -999.0 mph 93% 0.00 in meteobridge W/m2
02:34 -2.0 °F -3.1 °F 30.08 in Calm   -999.0 mph 95% 0.00 in meteobridge W/m2
02:39 -2.2 °F -3.6 °F 30.08 in Calm     93% 0.00 in meteobridge W/m2
02:44 -2.4 °F -3.8 °F 30.08 in Calm     93% 0.00 in meteobridge W/m2
02:49 -2.4 °F -3.5 °F 30.08 in Calm     95% 0.00 in meteobridge W/m2
02:54 -2.4 °F -3.3 °F 30.09 in Calm     96% 0.00 in meteobridge W/m2
02:59 -2.7 °F -4.2 °F 30.09 in Calm     93% 0.00 in meteobridge W/m2
03:04 -2.9 °F -4.4 °F 30.10 in Calm     93% 0.00 in meteobridge W/m2
03:09 -3.3 °F -4.7 °F 30.10 in Calm     93% 0.00 in meteobridge W/m2
03:14 -3.5 °F -4.9 °F 30.10 in Calm     93% 0.00 in meteobridge W/m2
03:19 -3.5 °F -5.4 °F 30.10 in Calm     91% 0.00 in meteobridge W/m2
03:24 -4.0 °F -6.0 °F 30.10 in Calm     91% 0.00 in meteobridge W/m2
03:29 -4.0 °F -6.0 °F 30.12 in Calm   -999.0 mph 91% 0.00 in meteobridge W/m2
03:34 -4.2 °F -6.2 °F 30.12 in Calm     91% 0.00 in meteobridge W/m2
03:39 -4.4 °F -6.3 °F 30.12 in Calm     91% 0.00 in meteobridge W/m2
03:44 -4.5 °F -6.5 °F 30.12 in Calm     91% 0.00 in meteobridge W/m2
03:49 -4.5 °F -6.5 °F 30.12 in Calm     91% 0.00 in meteobridge W/m2
03:54 -4.9 °F -6.9 °F 30.12 in Calm     91% 0.00 in meteobridge W/m2
03:59 -5.1 °F -7.1 °F 30.12 in Calm     91% 0.00 in meteobridge W/m2
04:04 -5.3 °F -7.2 °F 30.12 in Calm     91% 0.00 in meteobridge W/m2
04:09 -5.4 °F -7.4 °F 30.12 in Calm     91% 0.00 in meteobridge W/m2
04:14 -5.8 °F -7.8 °F 30.13 in Calm     91% 0.00 in meteobridge W/m2
04:19 -5.8 °F -7.8 °F 30.12 in Calm     91% 0.00 in meteobridge W/m2
04:24 -6.0 °F -8.0 °F 30.12 in Calm     91% 0.00 in meteobridge W/m2
04:29 -6.3 °F -8.3 °F 30.13 in Calm     91% 0.00 in meteobridge W/m2
04:34 -6.3 °F -8.3 °F 30.13 in Calm     91% 0.00 in meteobridge W/m2
04:39 -6.5 °F -8.5 °F 30.13 in Calm     91% 0.00 in meteobridge W/m2
04:44 -6.5 °F -8.5 °F 30.13 in Calm     91% 0.00 in meteobridge W/m2
04:49 -6.5 °F -8.5 °F 30.14 in Calm     91% 0.00 in meteobridge W/m2
04:54 -6.5 °F -8.0 °F 30.14 in Calm     93% 0.00 in meteobridge W/m2
04:59 -6.5 °F -8.0 °F 30.14 in Calm     93% 0.00 in meteobridge W/m2
05:04 -6.9 °F -8.9 °F 30.14 in Calm     91% 0.00 in meteobridge W/m2
05:09 -7.1 °F -9.0 °F 30.14 in Calm     91% 0.00 in meteobridge W/m2
05:14 -7.1 °F -8.5 °F 30.14 in Calm     93% 0.00 in meteobridge W/m2
05:19 -7.1 °F -8.5 °F 30.14 in Calm     93% 0.00 in meteobridge W/m2
05:24 -7.1 °F -8.5 °F 30.14 in Calm     93% 0.00 in meteobridge W/m2
05:29 -7.1 °F -8.5 °F 30.14 in Calm     93% 0.00 in meteobridge W/m2
05:34 -7.1 °F -9.0 °F 30.14 in Calm     91% 0.00 in meteobridge W/m2
05:39 -7.4 °F -9.4 °F 30.14 in Calm     91% 0.00 in meteobridge W/m2
05:44 -7.4 °F -9.4 °F 30.14 in Calm     91% 0.00 in meteobridge W/m2
05:49 -7.8 °F -9.8 °F 30.14 in Calm     91% 0.00 in meteobridge W/m2
05:54 -7.8 °F -9.8 °F 30.14 in Calm     91% 0.00 in meteobridge W/m2
05:59 -7.4 °F -8.9 °F 30.16 in Calm     93% 0.00 in meteobridge W/m2
06:04 -7.8 °F -9.2 °F 30.16 in Calm     93% 0.00 in meteobridge W/m2
06:09 -7.8 °F -9.2 °F 30.17 in Calm     93% 0.00 in meteobridge W/m2
06:14 -7.4 °F -8.9 °F 30.16 in Calm     93% 0.00 in meteobridge W/m2
06:19 -7.1 °F -8.5 °F 30.16 in Calm     93% 0.00 in meteobridge W/m2
06:24 -7.1 °F -8.5 °F 30.16 in Calm     93% 0.00 in meteobridge W/m2
06:29 -7.1 °F -8.5 °F 30.16 in Calm     93% 0.00 in meteobridge W/m2
06:34 -7.1 °F -8.5 °F 30.16 in Calm     93% 0.00 in meteobridge W/m2
06:39 -7.1 °F -8.5 °F 30.16 in Calm   -999.0 mph 93% 0.00 in meteobridge W/m2
06:44 -7.4 °F -8.9 °F 30.17 in Calm     93% 0.00 in meteobridge W/m2
06:49 -7.4 °F -8.9 °F 30.16 in Calm     93% 0.00 in meteobridge W/m2
06:54 -7.4 °F -8.9 °F 30.16 in Calm     93% 0.00 in meteobridge W/m2
06:59 -7.4 °F -9.4 °F 30.16 in Calm     91% 0.00 in meteobridge W/m2
07:04 -7.4 °F -9.4 °F 30.16 in Calm   -999.0 mph 91% 0.00 in meteobridge W/m2
07:09 -7.4 °F -9.4 °F 30.16 in Calm     91% 0.00 in meteobridge W/m2
07:14 -7.4 °F -9.4 °F 30.16 in Calm     91% 0.00 in meteobridge W/m2
07:19 -7.1 °F -9.0 °F 30.16 in Calm     91% 0.00 in meteobridge W/m2
07:24 -7.1 °F -9.0 °F 30.17 in Calm     91% 0.00 in meteobridge W/m2
07:29 -6.5 °F -8.5 °F 30.17 in Calm     91% 0.00 in meteobridge W/m2
07:34 -6.5 °F -8.5 °F 30.15 in Calm     91% 0.00 in meteobridge W/m2
07:39 -6.0 °F -7.4 °F 30.15 in Calm     93% 0.00 in meteobridge W/m2
07:44 -5.4 °F -6.9 °F 30.17 in Calm     93% 0.00 in meteobridge W/m2
07:49 -5.3 °F -6.7 °F 30.17 in Calm     93% 0.00 in meteobridge W/m2
07:54 -4.9 °F -6.3 °F 30.15 in Calm     93% 0.00 in meteobridge W/m2
07:59 -4.2 °F -5.6 °F 30.15 in Calm     93% 0.00 in meteobridge W/m2
08:04 -3.3 °F -4.7 °F 30.16 in Calm     93% 0.00 in meteobridge W/m2
08:09 -2.2 °F -3.6 °F 30.16 in Calm     93% 0.00 in meteobridge W/m2
08:14 -1.7 °F -3.1 °F 30.16 in Calm   -999.0 mph 93% 0.00 in meteobridge W/m2
08:19 0.5 °F -1.1 °F 30.16 in Calm     93% 0.00 in meteobridge W/m2
08:24 2.7 °F 1.8 °F 30.17 in Calm     96% 0.00 in meteobridge W/m2
08:29 3.7 °F 2.8 °F 30.17 in Calm     96% 0.00 in meteobridge W/m2
08:34 4.3 °F 3.4 °F 30.17 in Calm     96% 0.00 in meteobridge W/m2
08:39 6.4 °F 5.5 °F 30.18 in Calm     96% 0.00 in meteobridge W/m2
08:44 7.9 °F 6.8 °F 30.18 in Calm     95% 0.00 in meteobridge W/m2
08:49 9.9 °F 8.8 °F 30.18 in Calm     95% 0.00 in meteobridge W/m2
08:54 10.6 °F 9.0 °F 30.18 in Calm     93% 0.00 in meteobridge W/m2
08:59 12.2 °F 10.6 °F 30.18 in Calm     93% 0.00 in meteobridge W/m2
09:04 13.3 °F 11.7 °F 30.18 in Calm     93% 0.00 in meteobridge W/m2
09:09 14.7 °F 11.8 °F 30.18 in Calm     88% 0.00 in meteobridge W/m2
09:14 15.8 °F 12.4 °F 30.18 in Calm     86% 0.00 in meteobridge W/m2
09:19 15.3 °F 11.8 °F 30.19 in NNW 0.9 mph 2.0 mph 86% 0.00 in meteobridge W/m2
Juneau County Weather
Compliments of Weather Underground - 4.5 mb